createdAt,value
2023-02-17T00:00:31.580Z,17.92
2023-02-17T00:03:34.517Z,17.80
2023-02-17T00:06:37.514Z,17.10
2023-02-17T00:09:40.496Z,20.35
2023-02-17T00:12:43.335Z,16.40
2023-02-17T00:15:47.831Z,19.35
2023-02-17T00:18:54.741Z,14.50
2023-02-17T00:21:59.469Z,17.48
2023-02-17T00:25:02.352Z,19.40
2023-02-17T00:28:05.587Z,18.50
2023-02-17T00:31:12.274Z,19.70
2023-02-17T00:34:15.596Z,15.70
2023-02-17T00:37:18.470Z,18.63
2023-02-17T00:40:21.295Z,18.58
2023-02-17T00:43:24.248Z,15.95
2023-02-17T00:46:30.707Z,16.40
2023-02-17T00:49:33.580Z,17.42
2023-02-17T00:52:36.876Z,16.63
2023-02-17T00:55:39.707Z,16.73
2023-02-17T00:58:42.898Z,14.85
2023-02-17T01:01:47.355Z,14.73
2023-02-17T01:04:50.840Z,13.15
2023-02-17T01:07:53.705Z,12.98
2023-02-17T01:10:56.571Z,14.95
2023-02-17T01:14:02.031Z,16.67
2023-02-17T01:17:06.382Z,13.88
2023-02-17T01:20:10.602Z,14.02
2023-02-17T01:23:15.387Z,14.73
2023-02-17T01:26:20.111Z,15.80
2023-02-17T01:29:23.013Z,14.00
2023-02-17T01:32:27.191Z,13.45
2023-02-17T01:35:30.831Z,15.85
2023-02-17T01:38:33.814Z,12.55
2023-02-17T01:41:37.876Z,12.57
2023-02-17T01:45:14.012Z,13.10
2023-02-17T01:48:21.532Z,12.70
2023-02-17T01:51:29.824Z,14.48
2023-02-17T01:54:37.424Z,13.13
2023-02-17T01:57:42.855Z,14.73
2023-02-17T02:00:46.235Z,14.63
2023-02-17T02:03:53.540Z,13.48
2023-02-17T02:06:56.572Z,14.30
2023-02-17T02:10:00.345Z,10.77
2023-02-17T02:13:03.340Z,12.85
2023-02-17T02:16:15.315Z,12.15
2023-02-17T02:19:38.359Z,12.75
2023-02-17T02:23:08.400Z,11.35
2023-02-17T02:26:40.949Z,9.38
2023-02-17T02:29:59.799Z,12.02
2023-02-17T02:33:13.303Z,13.73
2023-02-17T02:36:20.950Z,13.07
2023-02-17T02:39:30.242Z,10.65
2023-02-17T02:42:34.047Z,11.52
2023-02-17T02:45:37.663Z,12.25
2023-02-17T02:48:42.298Z,15.73
2023-02-17T02:51:55.177Z,13.77
2023-02-17T02:55:04.679Z,12.07
2023-02-17T02:58:17.927Z,10.95
2023-02-17T03:01:31.228Z,12.32
2023-02-17T03:04:39.724Z,12.02
2023-02-17T03:07:50.384Z,12.65
2023-02-17T03:10:55.425Z,9.30
2023-02-17T03:14:01.835Z,9.98
2023-02-17T03:17:05.417Z,8.82
2023-02-17T03:20:11.209Z,10.32
2023-02-17T03:23:14.243Z,12.02
2023-02-17T03:26:17.173Z,9.20
2023-02-17T03:29:22.003Z,11.30
2023-02-17T03:32:25.033Z,9.40
2023-02-17T03:35:29.382Z,11.73
2023-02-17T03:38:32.236Z,9.98
2023-02-17T03:41:35.091Z,11.38
2023-02-17T03:44:38.074Z,11.55
2023-02-17T03:47:40.940Z,10.30
2023-02-17T03:50:45.242Z,10.07
2023-02-17T03:53:48.894Z,10.52
2023-02-17T03:56:51.797Z,10.32
2023-02-17T03:59:54.639Z,9.60
2023-02-17T04:02:57.998Z,9.05
2023-02-17T04:06:03.162Z,9.90
2023-02-17T04:09:06.166Z,9.43
2023-02-17T04:12:09.071Z,8.02
2023-02-17T04:15:12.424Z,8.27
2023-02-17T04:18:15.615Z,8.10
2023-02-17T04:21:19.902Z,8.63
2023-02-17T04:24:22.715Z,9.25
2023-02-17T04:27:25.528Z,10.23
2023-02-17T04:30:28.471Z,9.73
2023-02-17T04:33:31.275Z,8.50
2023-02-17T04:36:35.693Z,9.23
2023-02-17T04:39:38.606Z,8.23
2023-02-17T04:42:41.562Z,7.63
2023-02-17T04:45:44.414Z,9.30
2023-02-17T04:48:47.331Z,9.60
2023-02-17T04:51:51.467Z,7.28
2023-02-17T04:54:54.312Z,8.35
2023-02-17T04:57:58.220Z,8.70
2023-02-17T05:01:01.652Z,8.15
2023-02-17T05:04:04.641Z,7.18
2023-02-17T05:07:08.850Z,9.48
2023-02-17T05:10:12.448Z,8.68
2023-02-17T05:13:15.367Z,7.93
2023-02-17T05:16:18.311Z,8.45
2023-02-17T05:19:21.382Z,8.18
2023-02-17T05:22:25.961Z,8.43
2023-02-17T05:25:28.808Z,8.18
2023-02-17T05:28:31.697Z,7.50
2023-02-17T05:31:34.668Z,7.13
2023-02-17T05:34:38.077Z,7.05
2023-02-17T05:37:42.499Z,5.53
2023-02-17T05:40:45.365Z,6.63
2023-02-17T05:43:48.776Z,8.52
2023-02-17T05:46:51.812Z,6.47
2023-02-17T05:49:54.744Z,7.15
2023-02-17T05:52:58.926Z,7.82
2023-02-17T05:56:01.803Z,7.47
2023-02-17T05:59:04.794Z,6.82
2023-02-17T06:02:07.609Z,7.55
2023-02-17T06:05:11.034Z,7.25
2023-02-17T06:08:15.341Z,7.88
2023-02-17T06:11:18.263Z,6.93
2023-02-17T06:14:21.144Z,5.68
2023-02-17T06:17:24.036Z,7.60
2023-02-17T06:20:27.083Z,7.90
2023-02-17T06:23:31.515Z,6.18
2023-02-17T06:26:34.420Z,6.88
2023-02-17T06:29:37.262Z,6.82
2023-02-17T06:32:40.162Z,6.28
2023-02-17T06:35:44.531Z,6.85
2023-02-17T06:38:48.857Z,6.75
2023-02-17T06:41:51.923Z,6.28
2023-02-17T06:44:54.841Z,6.25
2023-02-17T06:47:57.669Z,6.30
2023-02-17T06:51:01.236Z,5.50
2023-02-17T06:54:05.763Z,7.55
2023-02-17T06:57:08.713Z,6.43
2023-02-17T07:00:12.371Z,8.05
2023-02-17T07:03:15.356Z,6.28
2023-02-17T07:06:18.179Z,6.95
2023-02-17T07:09:22.426Z,6.63
2023-02-17T07:12:25.287Z,6.05
2023-02-17T07:15:28.261Z,5.50
2023-02-17T07:18:31.526Z,6.57
2023-02-17T07:21:34.412Z,7.38
2023-02-17T07:24:38.736Z,6.05
2023-02-17T07:27:41.875Z,6.30
2023-02-17T07:30:45.363Z,5.53
2023-02-17T07:33:50.126Z,5.88
2023-02-17T07:36:53.029Z,6.28
2023-02-17T07:39:58.086Z,6.45
2023-02-17T07:43:00.947Z,5.30
2023-02-17T07:46:04.951Z,5.70
2023-02-17T07:49:08.200Z,4.38
2023-02-17T07:52:11.230Z,6.30
2023-02-17T07:55:15.511Z,6.57
2023-02-17T07:58:18.602Z,5.70
2023-02-17T08:01:23.652Z,5.65
2023-02-17T08:04:26.545Z,5.72
2023-02-17T08:07:29.921Z,5.32
2023-02-17T08:10:51.535Z,5.20
2023-02-17T08:13:54.515Z,5.00
2023-02-17T08:16:58.061Z,5.07
2023-02-17T08:20:08.064Z,5.47
2023-02-17T08:23:11.817Z,6.57
2023-02-17T08:26:16.053Z,8.73
2023-02-17T08:29:20.276Z,7.15
2023-02-17T08:32:23.197Z,7.10
2023-02-17T08:35:26.141Z,8.45
2023-02-17T08:38:29.758Z,12.75
2023-02-17T08:41:37.554Z,11.98
2023-02-17T08:44:40.614Z,13.35
2023-02-17T08:47:44.099Z,14.70
2023-02-17T08:50:48.762Z,15.00
2023-02-17T08:53:52.580Z,13.02
2023-02-17T08:56:58.668Z,10.32
2023-02-17T09:00:01.689Z,10.80
2023-02-17T09:03:05.051Z,7.90
2023-02-17T09:06:09.472Z,7.57
2023-02-17T09:09:15.262Z,7.40
2023-02-17T09:12:19.576Z,5.25
2023-02-17T09:15:22.476Z,7.78
2023-02-17T09:18:26.075Z,5.13
2023-02-17T09:21:29.170Z,6.60
2023-02-17T09:24:34.163Z,6.57
2023-02-17T09:27:38.617Z,5.43
2023-02-17T09:30:41.941Z,6.18
2023-02-17T09:33:45.320Z,8.15
2023-02-17T09:36:50.130Z,6.05
2023-02-17T09:39:53.171Z,6.13
2023-02-17T09:42:57.494Z,5.47
2023-02-17T09:46:08.444Z,5.15
2023-02-17T09:49:16.678Z,5.30
2023-02-17T09:52:27.172Z,5.63
2023-02-17T09:55:36.259Z,6.05
2023-02-17T09:58:44.735Z,4.93
2023-02-17T10:01:50.259Z,7.13
2023-02-17T10:04:55.634Z,7.30
2023-02-17T10:08:06.459Z,10.68
2023-02-17T10:11:17.114Z,10.32
2023-02-17T10:14:26.851Z,6.43
2023-02-17T10:17:36.034Z,7.85
2023-02-17T10:20:43.210Z,14.77
2023-02-17T10:23:47.603Z,18.20
2023-02-17T10:27:02.936Z,11.77
2023-02-17T10:30:21.012Z,7.85
2023-02-17T10:33:30.579Z,11.55
2023-02-17T10:36:45.633Z,13.35
2023-02-17T10:39:50.765Z,14.23
2023-02-17T10:42:57.253Z,13.27
2023-02-17T10:46:04.051Z,15.73
2023-02-17T10:49:07.362Z,18.23
2023-02-17T10:52:14.495Z,13.90
2023-02-17T10:55:24.686Z,12.20
2023-02-17T10:58:32.999Z,16.02
2023-02-17T11:01:37.628Z,17.77
2023-02-17T11:04:42.494Z,17.38
2023-02-17T11:07:46.140Z,11.77
2023-02-17T11:11:01.404Z,12.43
2023-02-17T11:14:15.343Z,14.05
2023-02-17T11:17:23.827Z,17.67
2023-02-17T11:20:36.750Z,11.13
2023-02-17T11:23:49.943Z,12.27
2023-02-17T11:26:58.536Z,15.15
2023-02-17T11:30:18.722Z,11.77
2023-02-17T11:33:29.775Z,19.13
2023-02-17T11:36:33.266Z,21.88
2023-02-17T11:39:39.524Z,19.40
2023-02-17T11:42:42.365Z,13.85
2023-02-17T11:45:54.617Z,9.68
2023-02-17T11:49:31.146Z,18.25
2023-02-17T11:52:53.651Z,27.73
2023-02-17T11:56:07.739Z,12.90
2023-02-17T11:59:37.001Z,8.30
2023-02-17T12:02:54.676Z,15.50
2023-02-17T12:06:09.214Z,11.07
2023-02-17T12:09:20.864Z,10.70
2023-02-17T12:12:33.112Z,9.25
2023-02-17T12:15:50.582Z,14.77
2023-02-17T12:19:05.741Z,10.70
2023-02-17T12:22:17.583Z,15.57
2023-02-17T12:25:27.082Z,11.57
2023-02-17T12:28:42.643Z,15.32
2023-02-17T12:32:07.528Z,17.83
2023-02-17T12:35:20.073Z,17.33
2023-02-17T12:38:28.468Z,16.30
2023-02-17T12:41:36.517Z,16.08
2023-02-17T12:44:43.506Z,19.35
2023-02-17T12:47:53.342Z,37.28
2023-02-17T12:51:03.951Z,22.65
2023-02-17T12:54:13.688Z,22.90
2023-02-17T12:57:23.470Z,20.58
2023-02-17T13:00:33.557Z,26.13
2023-02-17T13:03:37.721Z,31.63
2023-02-17T13:06:45.764Z,17.45
2023-02-17T13:09:51.256Z,20.38
2023-02-17T13:13:02.438Z,19.05
2023-02-17T13:16:08.529Z,12.27
2023-02-17T13:19:11.649Z,24.27
2023-02-17T13:22:23.678Z,20.20
2023-02-17T13:25:32.372Z,16.00
2023-02-17T13:28:38.599Z,23.20
2023-02-17T13:31:48.029Z,27.02
2023-02-17T13:35:01.554Z,27.13
2023-02-17T13:38:04.849Z,27.98
2023-02-17T13:41:08.352Z,35.65
2023-02-17T13:44:29.392Z,42.28
2023-02-17T13:47:38.002Z,44.20
2023-02-17T13:50:46.787Z,48.88
2023-02-17T13:53:51.482Z,57.13
2023-02-17T13:56:56.216Z,55.45
2023-02-17T14:00:11.945Z,78.22
2023-02-17T14:03:21.544Z,94.53
2023-02-17T14:06:28.935Z,113.10
2023-02-17T14:09:34.236Z,129.25
2023-02-17T14:12:37.120Z,143.40
2023-02-17T14:15:52.319Z,141.30
2023-02-17T14:19:03.379Z,144.07
2023-02-17T14:22:07.574Z,156.45
2023-02-17T14:25:15.232Z,154.00
2023-02-17T14:28:20.465Z,166.75
2023-02-17T14:31:25.506Z,171.35
2023-02-17T14:34:30.434Z,181.70
2023-02-17T14:37:36.773Z,189.88
2023-02-17T14:40:40.298Z,193.40
2023-02-17T14:43:43.240Z,207.13
2023-02-17T14:46:47.674Z,198.43
2023-02-17T14:49:50.613Z,220.95
2023-02-17T14:52:53.581Z,219.07
2023-02-17T14:56:01.532Z,236.98
2023-02-17T14:59:04.347Z,241.50
2023-02-17T15:02:15.403Z,249.27
2023-02-17T15:05:18.534Z,253.57
2023-02-17T15:08:26.318Z,257.15
2023-02-17T15:11:34.284Z,259.15
2023-02-17T15:14:37.166Z,272.30
2023-02-17T15:17:41.412Z,287.73
2023-02-17T15:20:46.598Z,283.60
2023-02-17T15:23:49.568Z,287.50
2023-02-17T15:26:52.620Z,299.55
2023-02-17T15:29:55.469Z,298.83
2023-02-17T15:32:59.736Z,307.00
2023-02-17T15:36:02.686Z,315.27
2023-02-17T15:39:05.580Z,345.05
2023-02-17T15:42:14.442Z,337.73
2023-02-17T15:45:20.417Z,341.23
2023-02-17T15:48:26.269Z,352.55
2023-02-17T15:51:29.344Z,359.98
2023-02-17T15:54:32.204Z,360.00
2023-02-17T15:57:35.835Z,369.88
2023-02-17T16:00:38.729Z,384.42
2023-02-17T16:03:42.960Z,392.35
2023-02-17T16:06:46.182Z,392.88
2023-02-17T16:09:49.084Z,385.77
2023-02-17T16:12:53.318Z,402.15
2023-02-17T16:15:59.705Z,409.35
2023-02-17T16:19:04.086Z,412.23
2023-02-17T16:22:06.956Z,423.20
2023-02-17T16:25:10.213Z,418.05
2023-02-17T16:28:16.840Z,429.83
2023-02-17T16:31:19.929Z,436.50
2023-02-17T16:34:25.909Z,443.85
2023-02-17T16:37:29.913Z,463.08
2023-02-17T16:40:35.807Z,451.60
2023-02-17T16:43:38.663Z,464.83
2023-02-17T16:46:47.369Z,470.92
2023-02-17T16:49:52.047Z,469.08
2023-02-17T16:52:56.844Z,449.67
2023-02-17T16:56:00.083Z,461.45
2023-02-17T16:59:03.144Z,467.98
2023-02-17T17:02:06.070Z,460.73
2023-02-17T17:05:12.628Z,454.17
2023-02-17T17:08:18.003Z,458.92
2023-02-17T17:11:24.004Z,454.67
2023-02-17T17:14:27.076Z,470.50
2023-02-17T17:17:30.786Z,462.27
2023-02-17T17:20:37.296Z,468.60
2023-02-17T17:23:40.630Z,484.58
2023-02-17T17:26:45.859Z,475.50
2023-02-17T17:29:48.700Z,495.02
2023-02-17T17:32:51.788Z,503.55
2023-02-17T17:35:56.095Z,514.88
2023-02-17T17:39:00.283Z,527.55
2023-02-17T17:42:03.217Z,524.33
2023-02-17T17:45:06.489Z,530.20
2023-02-17T17:48:13.832Z,548.53
2023-02-17T17:51:20.784Z,538.03
2023-02-17T17:54:23.651Z,538.25
2023-02-17T17:57:26.455Z,548.47
2023-02-17T18:00:29.545Z,546.42
2023-02-17T18:03:32.348Z,542.58
2023-02-17T18:06:40.637Z,548.13
2023-02-17T18:09:43.953Z,559.08
2023-02-17T18:12:48.708Z,558.88
2023-02-17T18:15:52.314Z,559.15
2023-02-17T18:18:57.226Z,563.20
2023-02-17T18:22:01.438Z,569.67
2023-02-17T18:25:04.397Z,563.75
2023-02-17T18:28:07.263Z,564.00
2023-02-17T18:31:11.548Z,572.20
2023-02-17T18:34:14.771Z,567.35
2023-02-17T18:37:19.042Z,568.33
2023-02-17T18:40:23.042Z,561.63
2023-02-17T18:43:26.320Z,572.03
2023-02-17T18:46:30.022Z,574.75
2023-02-17T18:49:32.862Z,577.08
2023-02-17T18:52:37.603Z,577.47
2023-02-17T18:55:40.456Z,587.05
2023-02-17T18:58:43.532Z,584.67
2023-02-17T19:01:46.532Z,591.97
2023-02-17T19:04:49.419Z,591.45
2023-02-17T19:07:53.701Z,585.53
2023-02-17T19:10:56.492Z,593.22
2023-02-17T19:14:01.407Z,601.17
2023-02-17T19:17:04.257Z,600.95
2023-02-17T19:20:08.484Z,604.58
2023-02-17T19:23:12.682Z,604.75
2023-02-17T19:26:17.213Z,595.22
2023-02-17T19:29:21.923Z,610.97
2023-02-17T19:32:25.744Z,623.00
2023-02-17T19:35:28.592Z,620.63
2023-02-17T19:38:32.859Z,614.00
2023-02-17T19:41:36.092Z,617.85
2023-02-17T19:44:39.083Z,625.60
2023-02-17T19:47:41.894Z,620.63
2023-02-17T19:50:44.732Z,627.22
2023-02-17T19:53:49.224Z,610.35
2023-02-17T19:56:52.765Z,628.72
2023-02-17T19:59:55.686Z,624.92
2023-02-17T20:02:58.515Z,622.78
2023-02-17T20:06:05.900Z,627.78
2023-02-17T20:09:12.402Z,640.42
2023-02-17T20:12:15.335Z,638.78
2023-02-17T20:15:18.407Z,636.00
2023-02-17T20:18:21.240Z,653.33
2023-02-17T20:21:25.979Z,660.17
2023-02-17T20:24:30.214Z,648.67
2023-02-17T20:27:33.031Z,640.92
2023-02-17T20:30:35.945Z,646.83
2023-02-17T20:33:39.079Z,648.78
2023-02-17T20:36:41.927Z,657.80
2023-02-17T20:39:46.334Z,660.20
2023-02-17T20:42:49.254Z,653.25
2023-02-17T20:45:53.236Z,653.28
2023-02-17T20:48:56.907Z,668.35
2023-02-17T20:51:59.726Z,657.85
2023-02-17T20:55:03.940Z,671.72
2023-02-17T20:58:06.971Z,668.10
2023-02-17T21:01:10.046Z,670.35
2023-02-17T21:04:14.103Z,677.50
2023-02-17T21:07:17.215Z,658.05
2023-02-17T21:10:23.897Z,647.88
2023-02-17T21:13:28.983Z,641.25
2023-02-17T21:16:32.744Z,630.28
2023-02-17T21:19:35.723Z,624.13
2023-02-17T21:22:38.648Z,619.95
2023-02-17T21:25:46.200Z,624.92
2023-02-17T21:28:49.153Z,624.38
2023-02-17T21:31:52.566Z,612.20
2023-02-17T21:34:55.995Z,615.50
2023-02-17T21:37:58.891Z,616.88
2023-02-17T21:41:07.432Z,615.13
2023-02-17T21:44:29.823Z,597.22
2023-02-17T21:47:34.264Z,599.42
2023-02-17T21:50:37.305Z,598.35
2023-02-17T21:53:40.296Z,600.75
2023-02-17T21:56:44.595Z,594.88
2023-02-17T21:59:47.515Z,600.08
2023-02-17T22:02:50.437Z,593.33
2023-02-17T22:05:53.860Z,597.03
2023-02-17T22:08:58.257Z,586.58
2023-02-17T22:12:02.480Z,590.40
2023-02-17T22:15:06.231Z,584.67
2023-02-17T22:18:09.263Z,603.03
2023-02-17T22:21:14.907Z,591.83
2023-02-17T22:24:20.609Z,598.90
2023-02-17T22:27:24.980Z,601.38
2023-02-17T22:30:28.491Z,608.97
2023-02-17T22:33:31.926Z,605.88
2023-02-17T22:36:36.254Z,603.97
2023-02-17T22:39:39.082Z,602.17
2023-02-17T22:42:43.331Z,592.45
2023-02-17T22:45:46.181Z,601.55
2023-02-17T22:48:50.889Z,605.15
2023-02-17T22:51:53.722Z,592.88
2023-02-17T22:54:56.794Z,587.08
2023-02-17T22:58:01.121Z,596.95
2023-02-17T23:01:06.319Z,601.70
2023-02-17T23:04:09.540Z,608.15
2023-02-17T23:07:12.408Z,614.28
2023-02-17T23:10:15.280Z,598.88
2023-02-17T23:13:19.975Z,586.55
2023-02-17T23:16:22.912Z,586.45
2023-02-17T23:19:26.379Z,591.17
2023-02-17T23:22:29.363Z,600.30
2023-02-17T23:25:32.311Z,582.38
2023-02-17T23:28:36.549Z,588.53
2023-02-17T23:31:39.561Z,580.30
2023-02-17T23:34:42.488Z,580.45
2023-02-17T23:37:45.453Z,578.50
2023-02-17T23:40:50.625Z,567.35
2023-02-17T23:43:55.091Z,567.58
2023-02-17T23:46:57.918Z,571.13
2023-02-17T23:50:00.787Z,570.83
2023-02-17T23:53:03.602Z,567.88
2023-02-17T23:56:09.128Z,561.97
2023-02-17T23:59:13.627Z,568.88
